Chicago, Illinois
Traffic Map
Current Weather Conditions
Chicago, Illinois
Few Clouds
Few Clouds
15°
Feels Like: 15°
Wind Chill: 15° Ceiling: Unl
Heat Index: 15° Visibility: 10mi
Dew Point: -2° Wind: 0mph
Humidity: 32% Direction: ° ()
Pressure: 30.14in Gusts: 0mph
Raw Report DataKMDW 231453Z 00000KT 10SM FEW250 15/M02 A3014 RMK AO2 SLP205 T01501017 58003
Traffic Incident Summary
Active as of:
Severity:
Category:
InformationThere was an issue retrieving the traffic information for this location. Please try a different location or try again shortly.
Advertisements
Track Severe Weather on mobile